Mostly Cloudy Current Weather (METAR) For Cancun Airport

All times on the weather descriptions are local

Observed at 13:43 - (22 mins ago)

Mostly Cloudy

30°C

Mostly Cloudy
Clouds: Scattered Clouds at 1,500ft, Broken Clouds at 30,000ft
Wind: 120° at 14 knots
Visibility: 7 statute miles
QNH:
Dew Point: 25°C
Runway in Use: Runway 12

Sunrise Today: 06:21
Sunset Today: 19:26

Forecast Weather (TAF) For Cancun Airport

Issued at 19:00 - (28 days ago)


Runway in Use: Unable to determine, wind is clam

Forecast valid until 19:00 on Sunday

METAR/TAF RAW METAR / TAF

MMUN 031843Z 12014KT 7SM SCT015 BKN300 30/25 A2996 RMK 8/508 CB DSNT NW

Weather Widget

Put weather from any of our airports on your website with our weather widget.

Find Another Search

Airport Search


Please Wait Please Wait - Loading
Close
Close

Login

Username:

Password:

Remember Me:

Remember me on this computer

Forgotten your password? Get a reset password sent to your registered e-mail address

Close

User Private Message

Subject:

Message: